Time;durP1;ratioP1;P1;durP2;ratioP2;P2;SDS_P1;SDS_P2;PMS_P1;PMS_P2;Temp;Humidity;BMP_temperature;BMP_pressure;BME280_temperature;BME280_humidity;BME280_pressure;Samples;Min_cycle;Max_cycle;Signal;HPM_P1;HPM_P2
2021/09/24 05:58:41;;;;;;;34.95;22.77;;;;;;;;;;10493378;28;20029;-89
2021/09/24 06:03:42;;;;;;;19.50;13.75;;;;;;;;;;10492187;28;20036;-90
2021/09/24 06:08:43;;;;;;;26.77;18.85;;;;;;;;;;10493600;28;20475;-88
2021/09/24 06:13:44;;;;;;;33.80;23.13;;;;;;;;;;10492735;28;20148;-90
2021/09/24 06:18:46;;;;;;;28.30;21.27;;;;;;;;;;10491969;28;20115;-88
2021/09/24 06:23:47;;;;;;;31.48;22.83;;;;;;;;;;10492413;28;20090;-88
2021/09/24 06:28:48;;;;;;;41.40;26.80;;;;;;;;;;10490030;28;20450;-90
2021/09/24 06:34:04;;;;;;;47.90;32.75;;;;;;;;;;10469755;23;20049;-87
2021/09/24 06:39:06;;;;;;;50.17;34.00;;;;;;;;;;10451635;28;20124;-87
2021/09/24 06:44:07;;;;;;;49.05;35.30;;;;;;;;;;10481364;28;20031;-87
2021/09/24 06:49:08;;;;;;;44.25;33.67;;;;;;;;;;10490857;28;20082;-87
2021/09/24 06:54:09;;;;;;;53.67;36.22;;;;;;;;;;10492945;28;20033;-87
2021/09/24 06:59:10;;;;;;;30.73;24.38;;;;;;;;;;10491145;28;20125;-87
2021/09/24 07:04:12;;;;;;;25.08;19.25;;;;;;;;;;10472726;28;20044;-86
2021/09/24 07:09:34;;;;;;;41.88;31.90;;;;;;;;;;10474803;28;20029;-85
2021/09/24 07:14:34;;;;;;;31.77;24.45;;;;;;;;;;10465349;28;20067;-84
2021/09/24 07:19:35;;;;;;;47.92;34.47;;;;;;;;;;10462905;28;20148;-84
2021/09/24 07:24:36;;;;;;;30.42;25.85;;;;;;;;;;10465444;28;20075;-84
2021/09/24 07:29:37;;;;;;;39.42;27.50;;;;;;;;;;10464321;28;20536;-84
2021/09/24 07:34:42;;;;;;;35.22;27.45;;;;;;;;;;10465269;28;20074;-87
2021/09/24 07:39:43;;;;;;;29.98;24.38;;;;;;;;;;10465014;28;20021;-85
2021/09/24 07:44:44;;;;;;;31.25;25.65;;;;;;;;;;10462710;28;20120;-85
2021/09/24 07:49:47;;;;;;;34.45;26.63;;;;;;;;;;10463404;28;20395;-85
2021/09/24 07:54:48;;;;;;;42.35;31.00;;;;;;;;;;10462594;28;20025;-85
2021/09/24 07:59:49;;;;;;;35.30;27.55;;;;;;;;;;10463172;28;20028;-84
2021/09/24 08:04:53;;;;;;;36.33;27.63;;;;;;;;;;10463624;28;20036;-85
2021/09/24 08:09:54;;;;;;;30.60;25.67;;;;;;;;;;10461761;28;20063;-86
2021/09/24 08:14:54;;;;;;;32.17;25.08;;;;;;;;;;10465939;28;20099;-85
2021/09/24 08:19:56;;;;;;;32.80;24.63;;;;;;;;;;10465302;28;20129;-86
2021/09/24 08:24:57;;;;;;;29.50;22.65;;;;;;;;;;10464667;28;20017;-86
2021/09/24 08:29:58;;;;;;;30.25;24.13;;;;;;;;;;10479948;28;20021;-87
2021/09/24 08:35:03;;;;;;;30.65;23.73;;;;;;;;;;10474371;28;20099;-86
2021/09/24 08:40:05;;;;;;;30.05;24.92;;;;;;;;;;10472627;28;20091;-86
2021/09/24 08:45:10;;;;;;;28.92;24.02;;;;;;;;;;10463637;28;20031;-87
2021/09/24 08:50:11;;;;;;;30.55;24.15;;;;;;;;;;10461142;28;20029;-87
2021/09/24 08:55:12;;;;;;;32.00;23.98;;;;;;;;;;10462219;28;20040;-83
2021/09/24 09:00:14;;;;;;;28.40;22.90;;;;;;;;;;10463677;28;20052;-85
2021/09/24 09:05:16;;;;;;;24.00;21.40;;;;;;;;;;10468502;28;20033;-85
2021/09/24 09:10:17;;;;;;;29.45;24.67;;;;;;;;;;10466782;28;20521;-85
2021/09/24 09:15:18;;;;;;;24.33;21.65;;;;;;;;;;10470641;28;20364;-85
2021/09/24 09:20:30;;;;;;;23.27;20.27;;;;;;;;;;10471380;28;20029;-86
2021/09/24 09:25:33;;;;;;;23.95;20.33;;;;;;;;;;10468384;28;20027;-84
2021/09/24 09:30:34;;;;;;;21.17;18.52;;;;;;;;;;10474550;28;20541;-85
2021/09/24 09:35:40;;;;;;;24.35;18.15;;;;;;;;;;10475457;28;20029;-86
2021/09/24 09:40:41;;;;;;;20.73;17.83;;;;;;;;;;10475948;28;20083;-87
2021/09/24 09:45:43;;;;;;;19.13;16.60;;;;;;;;;;10467894;28;20119;-86
2021/09/24 09:50:44;;;;;;;24.55;19.20;;;;;;;;;;10466042;28;20227;-85
2021/09/24 09:55:59;;;;;;;22.73;18.92;;;;;;;;;;10464981;28;20036;-86
2021/09/24 10:01:17;;;;;;;21.50;17.35;;;;;;;;;;10465140;28;20108;-86
2021/09/24 10:06:34;;;;;;;20.77;18.52;;;;;;;;;;10461145;28;20028;-86
2021/09/24 10:11:40;;;;;;;26.13;22.33;;;;;;;;;;10463022;28;20124;-86
2021/09/24 10:16:49;;;;;;;24.25;20.33;;;;;;;;;;10459449;28;20071;-87
2021/09/24 10:21:50;;;;;;;22.08;19.67;;;;;;;;;;10457753;28;20402;-85
2021/09/24 10:27:03;;;;;;;21.30;18.67;;;;;;;;;;10467077;28;20047;-86
2021/09/24 10:32:19;;;;;;;20.58;18.35;;;;;;;;;;10481212;28;20028;-86
2021/09/24 10:37:20;;;;;;;24.60;19.75;;;;;;;;;;10471044;28;20032;-85
2021/09/24 10:42:26;;;;;;;20.45;16.50;;;;;;;;;;10464222;28;20059;-86
2021/09/24 10:47:46;;;;;;;18.73;15.35;;;;;;;;;;10466672;28;20031;-85
2021/09/24 10:52:47;;;;;;;17.43;15.20;;;;;;;;;;10466840;28;20017;-85
2021/09/24 10:57:50;;;;;;;20.95;17.58;;;;;;;;;;10467255;28;20119;-86
2021/09/24 11:03:05;;;;;;;20.42;17.02;;;;;;;;;;10471221;28;20404;-85
2021/09/24 11:08:25;;;;;;;20.52;18.27;;;;;;;;;;10466572;28;20025;-86
2021/09/24 11:13:29;;;;;;;17.10;15.30;;;;;;;;;;10469865;28;20040;-84
2021/09/24 11:18:50;;;;;;;20.52;18.15;;;;;;;;;;10468665;28;20125;-86
2021/09/24 11:23:51;;;;;;;;;;;;;;;;;;10472638;28;20032;-85
2021/09/24 11:29:09;;;;;;;18.00;15.75;;;;;;;;;;10475913;28;19968;-85
2021/09/24 11:34:10;;;;;;;38.15;31.13;;;;;;;;;;10478159;28;20044;-85
2021/09/24 11:39:21;;;;;;;14.80;13.30;;;;;;;;;;10477165;28;20033;-85
2021/09/24 11:44:22;;;;;;;15.80;11.80;;;;;;;;;;10474615;28;20120;-86
2021/09/24 11:49:22;;;;;;;15.20;11.48;;;;;;;;;;10469757;28;20056;-85
2021/09/24 11:54:23;;;;;;;15.07;12.27;;;;;;;;;;10472525;28;20098;-86
2021/09/24 11:59:24;;;;;;;11.73;10.32;;;;;;;;;;10474088;28;20045;-84
2021/09/24 12:04:25;;;;;;;12.13;10.60;;;;;;;;;;10473011;28;20095;-84
2021/09/24 12:09:26;;;;;;;12.73;10.10;;;;;;;;;;10473166;28;20036;-85
2021/09/24 12:14:29;;;;;;;12.55;9.70;;;;;;;;;;10472482;28;20493;-84
2021/09/24 12:19:30;;;;;;;12.65;10.65;;;;;;;;;;10472764;28;20021;-84
2021/09/24 12:24:37;;;;;;;12.68;10.15;;;;;;;;;;10476344;28;20099;-85
2021/09/24 12:29:39;;;;;;;10.98;9.50;;;;;;;;;;10476434;28;20483;-84
2021/09/24 12:35:09;;;;;;;10.23;8.80;;;;;;;;;;10448784;23;20518;-86
2021/09/24 12:40:32;;;;;;;13.25;9.55;;;;;;;;;;10424985;28;20025;-86
2021/09/24 12:45:39;;;;;;;10.25;8.20;;;;;;;;;;10428391;28;20443;-86
2021/09/24 12:56:52;;;;;;;10.05;8.55;;;;;;;;;;10435096;28;20028;-86
2021/09/24 13:07:56;;;;;;;13.02;10.25;;;;;;;;;;10418908;28;20033;-86
2021/09/24 13:12:58;;;;;;;9.00;7.35;;;;;;;;;;10403501;28;20025;-86
2021/09/24 13:18:18;;;;;;;8.98;7.22;;;;;;;;;;10457082;28;20483;-86
2021/09/24 13:24:26;;;;;;;8.35;7.18;;;;;;;;;;10382251;28;20029;-86
2021/09/24 13:30:31;;;;;;;8.68;6.88;;;;;;;;;;10218695;29;20031;-86
2021/09/24 13:41:47;;;;;;;10.50;7.43;;;;;;;;;;10277296;28;20043;-86
2021/09/24 14:04:20;;;;;;;8.25;6.28;;;;;;;;;;10434935;28;20030;-84
2021/09/24 14:21:12;;;;;;;6.43;5.83;;;;;;;;;;10443805;28;20034;-86
2021/09/24 14:32:09;;;;;;;10.73;7.80;;;;;;;;;;10437834;28;20154;-86
2021/09/24 14:42:50;;;;;;;7.60;5.72;;;;;;;;;;10440853;28;20033;-86
2021/09/24 14:53:36;;;;;;;8.23;6.05;;;;;;;;;;10369350;28;20022;-88
2021/09/24 15:27:16;;;;;;;7.15;4.50;;;;;;;;;;10357543;28;20034;-86
2021/09/24 15:38:37;;;;;;;5.97;4.38;;;;;;;;;;10234884;29;20410;-86
2021/09/24 15:43:42;;;;;;;6.22;4.70;;;;;;;;;;10219287;29;20115;-86
2021/09/24 15:48:58;;;;;;;7.07;5.00;;;;;;;;;;10242829;28;20182;-86
2021/09/24 15:54:09;;;;;;;6.50;4.88;;;;;;;;;;10298356;28;20528;-86
2021/09/24 15:59:26;;;;;;;5.53;4.35;;;;;;;;;;10302366;28;20031;-86
2021/09/24 16:04:30;;;;;;;6.97;4.60;;;;;;;;;;10427269;28;20033;-86
2021/09/24 16:09:31;;;;;;;7.30;4.30;;;;;;;;;;10427996;28;20026;-86
2021/09/24 16:14:32;;;;;;;5.05;4.28;;;;;;;;;;10433750;28;20049;-86
2021/09/24 16:19:37;;;;;;;6.25;4.20;;;;;;;;;;10427192;28;20387;-86
2021/09/24 16:24:39;;;;;;;6.28;4.32;;;;;;;;;;10428498;28;20029;-83
2021/09/24 16:29:44;;;;;;;5.97;3.78;;;;;;;;;;10426892;28;20032;-86
2021/09/24 16:34:46;;;;;;;5.75;3.72;;;;;;;;;;10423980;28;20114;-86
2021/09/24 16:39:47;;;;;;;9.10;4.60;;;;;;;;;;10421396;28;20048;-86
2021/09/24 16:44:48;;;;;;;5.38;4.70;;;;;;;;;;10421278;28;20057;-87
2021/09/24 16:49:53;;;;;;;5.90;4.40;;;;;;;;;;10421744;28;20457;-86
2021/09/24 16:55:04;;;;;;;5.38;3.90;;;;;;;;;;10428289;28;20021;-86
2021/09/24 17:00:08;;;;;;;4.28;3.10;;;;;;;;;;10448727;28;20026;-86
2021/09/24 17:05:11;;;;;;;6.28;4.05;;;;;;;;;;10427511;28;20476;-85
2021/09/24 17:10:12;;;;;;;6.00;4.13;;;;;;;;;;10425585;28;20029;-85
2021/09/24 17:15:23;;;;;;;3.75;3.33;;;;;;;;;;10430077;28;20026;-87
2021/09/24 17:20:25;;;;;;;4.45;3.53;;;;;;;;;;10432346;28;20049;-86
2021/09/24 17:25:29;;;;;;;3.83;3.40;;;;;;;;;;10430121;28;20056;-86
2021/09/24 17:30:30;;;;;;;4.28;3.35;;;;;;;;;;10433950;28;20116;-87
2021/09/24 17:35:55;;;;;;;4.00;3.60;;;;;;;;;;10432600;28;20040;-87
2021/09/24 17:40:56;;;;;;;3.90;3.50;;;;;;;;;;10433221;28;20033;-88
2021/09/24 17:45:57;;;;;;;4.35;3.33;;;;;;;;;;10427753;28;20546;-86
2021/09/24 17:50:58;;;;;;;3.88;3.47;;;;;;;;;;10424889;28;20030;-87
2021/09/24 17:55:59;;;;;;;4.43;3.80;;;;;;;;;;10429410;28;20030;-87
2021/09/24 18:01:01;;;;;;;4.47;4.07;;;;;;;;;;10423166;28;20075;-86
2021/09/24 18:06:02;;;;;;;4.35;3.70;;;;;;;;;;10423869;28;20037;-89
2021/09/24 18:11:03;;;;;;;5.15;3.95;;;;;;;;;;10432726;28;20048;-87
2021/09/24 18:16:04;;;;;;;6.53;3.95;;;;;;;;;;10432890;28;20089;-86
2021/09/24 18:21:05;;;;;;;5.95;4.30;;;;;;;;;;10432485;28;20045;-87
2021/09/24 18:26:07;;;;;;;6.07;4.90;;;;;;;;;;10432912;28;20037;-87
2021/09/24 18:36:12;;;;;;;6.93;4.95;;;;;;;;;;10439233;28;20049;-86
2021/09/24 18:41:15;;;;;;;6.47;4.38;;;;;;;;;;10422205;28;20053;-86
2021/09/24 18:46:16;;;;;;;5.68;4.43;;;;;;;;;;10439229;28;20038;-86
2021/09/24 18:51:17;;;;;;;7.03;5.10;;;;;;;;;;10437102;28;20486;-86
2021/09/24 18:56:20;;;;;;;6.32;5.28;;;;;;;;;;10441653;28;20410;-86
2021/09/24 19:01:21;;;;;;;7.63;5.60;;;;;;;;;;10445415;28;20037;-87
2021/09/24 19:06:23;;;;;;;5.78;5.07;;;;;;;;;;10443404;28;20402;-86
2021/09/24 19:11:24;;;;;;;7.13;4.75;;;;;;;;;;10444707;28;20479;-86
2021/09/24 19:16:25;;;;;;;5.95;4.40;;;;;;;;;;10444260;28;20029;-86
2021/09/24 19:21:26;;;;;;;5.78;4.55;;;;;;;;;;10441567;28;20021;-86
2021/09/24 19:26:27;;;;;;;5.93;4.88;;;;;;;;;;10442035;28;20085;-87
2021/09/24 19:31:28;;;;;;;6.25;4.30;;;;;;;;;;10442930;28;20044;-86
2021/09/24 19:36:29;;;;;;;5.60;4.63;;;;;;;;;;10444764;28;20033;-87
2021/09/24 19:41:29;;;;;;;6.65;4.55;;;;;;;;;;10444993;28;20044;-87
2021/09/24 19:46:30;;;;;;;9.45;6.22;;;;;;;;;;10459434;28;20037;-86
2021/09/24 19:51:32;;;;;;;5.95;4.20;;;;;;;;;;10435546;28;20120;-85
2021/09/24 19:56:33;;;;;;;5.57;4.18;;;;;;;;;;10431487;28;20384;-86
2021/09/24 20:01:33;;;;;;;5.18;3.90;;;;;;;;;;10431986;28;20029;-86
2021/09/24 20:06:34;;;;;;;5.85;4.00;;;;;;;;;;10431842;28;20029;-85
2021/09/24 20:11:35;;;;;;;5.75;3.80;;;;;;;;;;10431707;28;20029;-86
2021/09/24 20:16:36;;;;;;;8.07;4.40;;;;;;;;;;10430859;28;20483;-86
2021/09/24 20:21:38;;;;;;;6.75;4.47;;;;;;;;;;10434845;28;20422;-86
2021/09/24 20:26:39;;;;;;;5.57;3.97;;;;;;;;;;10433075;28;20036;-85
2021/09/24 20:31:40;;;;;;;9.32;3.95;;;;;;;;;;10449367;28;20044;-87
2021/09/24 20:36:41;;;;;;;6.13;4.20;;;;;;;;;;10439834;28;20037;-86
2021/09/24 20:41:42;;;;;;;5.80;3.90;;;;;;;;;;10437049;28;20444;-85
2021/09/24 20:46:43;;;;;;;6.72;5.32;;;;;;;;;;10431587;28;20024;-86
2021/09/24 20:51:44;;;;;;;8.80;6.85;;;;;;;;;;10437478;28;20032;-86
2021/09/24 20:56:45;;;;;;;8.90;7.20;;;;;;;;;;10441390;28;20124;-86
2021/09/24 21:01:46;;;;;;;12.07;10.70;;;;;;;;;;10445883;28;20092;-86
2021/09/24 21:06:47;;;;;;;10.45;8.80;;;;;;;;;;10439618;28;20033;-85
2021/09/24 21:11:48;;;;;;;13.45;11.32;;;;;;;;;;10443815;28;20040;-86
2021/09/24 21:16:49;;;;;;;10.18;9.10;;;;;;;;;;10443893;28;20088;-85
2021/09/24 21:21:50;;;;;;;13.85;12.15;;;;;;;;;;10439892;28;20029;-86
2021/09/24 21:26:51;;;;;;;13.02;11.23;;;;;;;;;;10438256;28;20087;-86
2021/09/24 21:31:52;;;;;;;17.73;15.70;;;;;;;;;;10442108;28;20076;-87
2021/09/24 21:36:53;;;;;;;8.63;6.22;;;;;;;;;;10422329;28;20432;-87
2021/09/24 21:41:54;;;;;;;14.73;12.05;;;;;;;;;;10422334;28;20079;-87
2021/09/24 21:46:55;;;;;;;12.55;11.20;;;;;;;;;;10422260;28;20430;-87
2021/09/24 21:51:57;;;;;;;10.75;9.38;;;;;;;;;;10422545;28;20124;-87
2021/09/24 21:56:58;;;;;;;7.70;6.90;;;;;;;;;;10421906;28;20026;-87
2021/09/24 22:01:59;;;;;;;10.38;9.27;;;;;;;;;;10424206;28;20080;-87
2021/09/24 22:07:00;;;;;;;12.05;9.05;;;;;;;;;;10422597;28;20025;-87
2021/09/24 22:12:01;;;;;;;9.02;7.45;;;;;;;;;;10425713;28;20026;-87
2021/09/24 22:17:03;;;;;;;8.45;6.68;;;;;;;;;;10420904;28;20021;-87
2021/09/24 22:22:04;;;;;;;7.85;6.38;;;;;;;;;;10420269;28;20403;-87
2021/09/24 22:27:05;;;;;;;10.40;8.73;;;;;;;;;;10422035;28;20040;-87
2021/09/24 22:32:06;;;;;;;14.48;9.65;;;;;;;;;;10423477;28;20067;-87
2021/09/24 22:37:07;;;;;;;9.20;8.15;;;;;;;;;;10428335;28;20104;-87
2021/09/24 22:42:08;;;;;;;9.75;8.60;;;;;;;;;;10426887;28;20028;-86
2021/09/24 22:47:09;;;;;;;9.05;6.45;;;;;;;;;;10443409;28;20053;-86
2021/09/24 22:52:10;;;;;;;9.07;8.18;;;;;;;;;;10468123;28;20060;-85
2021/09/24 22:57:11;;;;;;;8.23;6.15;;;;;;;;;;10460206;28;20510;-87
2021/09/24 23:02:12;;;;;;;7.15;5.93;;;;;;;;;;10431010;28;20025;-86
2021/09/24 23:07:13;;;;;;;8.60;6.88;;;;;;;;;;10428421;28;20029;-86
2021/09/24 23:12:14;;;;;;;8.60;7.28;;;;;;;;;;10427090;28;20387;-86
2021/09/24 23:17:15;;;;;;;6.72;5.72;;;;;;;;;;10427694;28;20056;-86
2021/09/24 23:22:16;;;;;;;6.40;5.80;;;;;;;;;;10427615;28;20041;-86
2021/09/24 23:27:17;;;;;;;6.90;6.03;;;;;;;;;;10427404;28;20029;-86
2021/09/24 23:32:18;;;;;;;8.38;5.72;;;;;;;;;;10426955;28;20060;-86
2021/09/24 23:37:19;;;;;;;6.22;5.45;;;;;;;;;;10429751;28;20022;-86
2021/09/24 23:42:20;;;;;;;7.07;5.22;;;;;;;;;;10428147;28;20026;-86
2021/09/24 23:47:21;;;;;;;6.05;4.57;;;;;;;;;;10434364;28;20029;-86
2021/09/24 23:52:22;;;;;;;5.57;4.93;;;;;;;;;;10444544;28;20045;-84
2021/09/24 23:57:23;;;;;;;6.22;4.65;;;;;;;;;;10457978;28;20025;-86
